createdAt,value
2022-12-08T00:01:24.778Z,99.90
2022-12-08T00:03:51.844Z,75.80
2022-12-08T00:06:52.495Z,24.20
2022-12-08T00:09:38.212Z,2.80
2022-12-08T00:12:11.648Z,1.00
2022-12-08T00:14:43.868Z,1.00
2022-12-08T00:17:12.868Z,1.00
2022-12-08T00:19:40.286Z,1.00
2022-12-08T00:22:09.148Z,1.00
2022-12-08T00:24:41.156Z,1.00
2022-12-08T00:27:13.156Z,1.00
2022-12-08T00:29:39.925Z,12.20
2022-12-08T00:32:07.189Z,49.00
2022-12-08T00:34:36.906Z,97.80
2022-12-08T00:37:03.547Z,99.90
2022-12-08T00:39:30.203Z,99.90
2022-12-08T00:42:12.157Z,99.90
2022-12-08T00:44:43.199Z,99.90
2022-12-08T00:47:10.752Z,99.90
2022-12-08T00:49:37.422Z,99.90
2022-12-08T00:52:04.857Z,99.90
2022-12-08T00:54:31.592Z,99.40
2022-12-08T00:56:58.254Z,28.50
2022-12-08T00:59:27.934Z,1.00
2022-12-08T01:01:54.603Z,1.00
2022-12-08T01:04:21.634Z,1.00
2022-12-08T01:06:48.969Z,1.00
2022-12-08T01:09:17.086Z,1.00
2022-12-08T01:11:44.585Z,1.00
2022-12-08T01:14:11.924Z,1.00
2022-12-08T01:16:41.117Z,1.00
2022-12-08T01:19:07.928Z,1.00
2022-12-08T01:21:34.594Z,1.00
2022-12-08T01:24:02.618Z,1.00
2022-12-08T01:26:29.297Z,1.00
2022-12-08T01:28:55.943Z,1.00
2022-12-08T01:31:23.165Z,1.00
2022-12-08T01:33:50.491Z,1.00
2022-12-08T01:36:25.196Z,1.00
2022-12-08T01:38:52.775Z,1.00
2022-12-08T01:41:23.895Z,1.00
2022-12-08T01:44:00.947Z,1.00
2022-12-08T01:46:30.197Z,1.00
2022-12-08T01:49:06.833Z,1.00
2022-12-08T01:51:38.358Z,1.00
2022-12-08T01:54:06.982Z,1.00
2022-12-08T01:56:44.234Z,1.00
2022-12-08T01:59:14.895Z,1.00
2022-12-08T02:01:41.742Z,1.00
2022-12-08T02:04:10.363Z,20.80
2022-12-08T02:06:42.223Z,56.60
2022-12-08T02:09:09.442Z,99.90
2022-12-08T02:11:36.187Z,99.90
2022-12-08T02:14:06.271Z,99.90
2022-12-08T02:16:38.245Z,99.90
2022-12-08T02:19:42.708Z,99.90
2022-12-08T02:22:35.167Z,99.90
2022-12-08T02:25:31.222Z,99.90
2022-12-08T02:28:15.939Z,99.90
2022-12-08T02:30:54.617Z,99.90
2022-12-08T02:33:42.588Z,1.00
2022-12-08T02:36:25.860Z,36.80
2022-12-08T02:38:59.701Z,99.90
2022-12-08T02:41:32.146Z,1.00
2022-12-08T02:44:23.276Z,1.00
2022-12-08T02:46:56.967Z,49.30
2022-12-08T02:49:29.777Z,99.90
2022-12-08T02:52:29.516Z,99.90
2022-12-08T02:55:20.513Z,24.50
2022-12-08T02:58:13.514Z,1.00
2022-12-08T03:01:10.556Z,1.00
2022-12-08T03:04:03.980Z,1.00
2022-12-08T03:06:58.265Z,99.90
2022-12-08T03:09:30.355Z,99.90
2022-12-08T03:12:03.312Z,99.90
2022-12-08T03:14:31.667Z,99.90
2022-12-08T03:17:00.113Z,99.90
2022-12-08T03:19:38.655Z,99.90
2022-12-08T03:22:07.122Z,99.90
2022-12-08T03:24:40.840Z,99.90
2022-12-08T03:27:11.101Z,99.90
2022-12-08T03:29:37.784Z,99.90
2022-12-08T03:32:26.642Z,91.10
2022-12-08T03:34:54.503Z,99.90
2022-12-08T03:37:21.519Z,99.90
2022-12-08T03:39:48.560Z,99.90
2022-12-08T03:42:15.304Z,99.90
2022-12-08T03:44:43.074Z,99.90
2022-12-08T03:47:09.802Z,99.90
2022-12-08T03:49:36.503Z,95.20
2022-12-08T03:52:03.323Z,99.90
2022-12-08T03:54:35.557Z,99.90
2022-12-08T03:57:02.277Z,99.90
2022-12-08T03:59:28.944Z,99.90
2022-12-08T04:01:55.716Z,99.90
2022-12-08T04:04:22.520Z,47.80
2022-12-08T04:06:50.383Z,23.10
2022-12-08T04:09:17.398Z,38.40
2022-12-08T04:11:46.181Z,40.90
2022-12-08T04:14:13.267Z,53.40
2022-12-08T04:16:40.112Z,32.60
2022-12-08T04:19:06.979Z,28.60
2022-12-08T04:21:36.118Z,42.60
2022-12-08T04:24:02.817Z,99.90
2022-12-08T04:26:29.805Z,99.90
2022-12-08T04:28:56.522Z,99.90
2022-12-08T04:31:25.605Z,99.90
2022-12-08T04:33:52.340Z,99.90
2022-12-08T04:36:19.082Z,1.00
2022-12-08T04:38:45.767Z,1.00
2022-12-08T04:41:12.426Z,1.00
2022-12-08T04:43:39.112Z,1.00
2022-12-08T04:46:09.207Z,1.00
2022-12-08T04:48:40.077Z,1.00
2022-12-08T04:51:07.783Z,9.90
2022-12-08T04:53:34.556Z,61.10
2022-12-08T04:56:01.200Z,76.40
2022-12-08T04:58:27.880Z,99.20
2022-12-08T05:00:56.370Z,99.90
2022-12-08T05:03:28.581Z,99.90
2022-12-08T05:05:55.824Z,99.90
2022-12-08T05:08:22.686Z,99.90
2022-12-08T05:10:49.393Z,99.90
2022-12-08T05:13:16.082Z,99.90
2022-12-08T05:15:43.048Z,99.90
2022-12-08T05:18:09.730Z,99.90
2022-12-08T05:20:36.502Z,1.00
2022-12-08T05:23:03.537Z,1.00
2022-12-08T05:25:30.199Z,74.90
2022-12-08T05:28:11.642Z,99.90
2022-12-08T05:30:43.631Z,1.00
2022-12-08T05:33:10.307Z,1.00
2022-12-08T05:35:39.950Z,93.30
2022-12-08T05:38:07.206Z,99.90
2022-12-08T05:40:33.865Z,99.90
2022-12-08T05:43:00.636Z,99.90
2022-12-08T05:45:27.365Z,99.90
2022-12-08T05:47:54.326Z,35.50
2022-12-08T05:50:21.027Z,1.00
2022-12-08T05:52:47.731Z,1.00
2022-12-08T05:55:14.735Z,1.00
2022-12-08T05:57:41.474Z,1.00
2022-12-08T06:00:08.887Z,1.00
2022-12-08T06:02:38.713Z,1.00
2022-12-08T06:05:05.918Z,1.00
2022-12-08T06:07:32.694Z,1.00
2022-12-08T06:09:59.475Z,1.00
2022-12-08T06:12:26.147Z,1.00
2022-12-08T06:14:52.876Z,1.00
2022-12-08T06:17:19.521Z,1.00
2022-12-08T06:19:46.308Z,99.90
2022-12-08T06:22:13.108Z,99.90
2022-12-08T06:24:39.816Z,99.90
2022-12-08T06:27:06.499Z,99.90
2022-12-08T06:29:35.213Z,99.90
2022-12-08T06:32:02.002Z,99.90
2022-12-08T06:34:28.775Z,99.90
2022-12-08T06:36:55.570Z,1.00
2022-12-08T06:39:22.372Z,1.00
2022-12-08T06:42:07.878Z,1.00
2022-12-08T06:44:34.529Z,1.00
2022-12-08T06:47:01.204Z,1.00
2022-12-08T06:49:27.848Z,27.50
2022-12-08T06:51:54.522Z,99.90
2022-12-08T06:54:21.183Z,99.90
2022-12-08T06:56:47.888Z,99.90
2022-12-08T06:59:14.955Z,95.80
2022-12-08T07:01:41.741Z,24.90
2022-12-08T07:04:08.437Z,1.00
2022-12-08T07:06:42.345Z,1.00
2022-12-08T07:09:08.997Z,1.00
2022-12-08T07:11:35.851Z,37.00
2022-12-08T07:14:02.870Z,99.90
2022-12-08T07:16:29.688Z,99.90
2022-12-08T07:18:56.411Z,99.90
2022-12-08T07:21:23.179Z,99.90
2022-12-08T07:23:55.978Z,99.90
2022-12-08T07:26:24.867Z,99.90
2022-12-08T07:28:51.591Z,99.90
2022-12-08T07:31:24.528Z,99.90
2022-12-08T07:33:51.956Z,99.90
2022-12-08T07:36:19.061Z,99.90
2022-12-08T07:38:45.734Z,99.90
2022-12-08T07:41:14.466Z,99.90
2022-12-08T07:43:44.275Z,99.90
2022-12-08T07:46:19.757Z,99.90
2022-12-08T07:48:46.929Z,99.90
2022-12-08T07:51:17.214Z,99.90
2022-12-08T07:53:51.661Z,99.90
2022-12-08T07:56:20.404Z,99.90
2022-12-08T07:58:47.250Z,99.90
2022-12-08T08:01:28.905Z,1.00
2022-12-08T08:04:00.087Z,1.00
2022-12-08T08:06:26.839Z,1.00
2022-12-08T08:08:53.974Z,1.00
2022-12-08T08:11:23.488Z,1.00
2022-12-08T08:13:51.006Z,1.00
2022-12-08T08:16:18.804Z,99.90
2022-12-08T08:18:48.827Z,99.90
2022-12-08T08:21:43.840Z,99.90
2022-12-08T08:24:06.163Z,99.90
2022-12-08T08:26:33.047Z,99.90
2022-12-08T08:28:59.669Z,99.90
2022-12-08T08:31:29.254Z,99.90
2022-12-08T08:33:56.685Z,99.90
2022-12-08T08:36:23.440Z,99.90
2022-12-08T08:38:50.130Z,99.90
2022-12-08T08:41:16.902Z,99.90
2022-12-08T08:43:43.591Z,99.90
2022-12-08T08:46:11.001Z,99.90
2022-12-08T08:48:38.042Z,99.90
2022-12-08T08:51:13.258Z,99.90
2022-12-08T08:53:41.468Z,99.90
2022-12-08T08:56:12.585Z,99.90
2022-12-08T08:58:39.747Z,99.90
2022-12-08T09:01:06.478Z,99.90
2022-12-08T09:03:33.672Z,99.90
2022-12-08T09:06:00.443Z,99.90
2022-12-08T09:08:29.443Z,99.90
2022-12-08T09:10:56.270Z,99.90
2022-12-08T09:13:23.552Z,99.90
2022-12-08T09:15:58.652Z,99.90
2022-12-08T09:18:25.300Z,99.90
2022-12-08T09:20:51.991Z,99.90
2022-12-08T09:23:18.868Z,99.90
2022-12-08T09:25:45.753Z,99.90
2022-12-08T09:28:13.509Z,99.90
2022-12-08T09:30:41.326Z,99.90
2022-12-08T09:33:08.018Z,99.90
2022-12-08T09:35:34.722Z,99.90
2022-12-08T09:38:01.402Z,99.90
2022-12-08T09:40:35.323Z,99.90
2022-12-08T09:43:09.132Z,99.90
2022-12-08T09:45:36.451Z,99.90
2022-12-08T09:48:31.735Z,99.90
2022-12-08T09:50:59.054Z,99.90
2022-12-08T09:53:46.403Z,99.90
2022-12-08T09:56:21.018Z,99.90
2022-12-08T09:59:06.129Z,99.90
2022-12-08T10:01:38.331Z,99.90
2022-12-08T10:04:24.505Z,99.90
2022-12-08T10:07:16.840Z,99.90
2022-12-08T10:10:01.500Z,99.90
2022-12-08T10:12:40.352Z,99.90
2022-12-08T10:15:23.628Z,99.90
2022-12-08T10:17:52.769Z,99.90
2022-12-08T10:20:25.120Z,99.90
2022-12-08T10:23:14.048Z,99.90
2022-12-08T10:25:47.305Z,99.90
2022-12-08T10:28:14.279Z,99.90
2022-12-08T10:30:44.268Z,99.90
2022-12-08T10:33:19.134Z,99.90
2022-12-08T10:35:47.450Z,99.90
2022-12-08T10:38:34.448Z,99.90
2022-12-08T10:41:07.309Z,99.90
2022-12-08T10:43:39.566Z,99.90
2022-12-08T10:46:14.558Z,99.90
2022-12-08T10:48:55.678Z,99.90
2022-12-08T10:51:23.863Z,99.90
2022-12-08T10:53:50.792Z,99.90
2022-12-08T10:56:18.062Z,99.90
2022-12-08T10:58:47.207Z,99.90
2022-12-08T11:01:25.178Z,99.90
2022-12-08T11:03:55.412Z,99.90
2022-12-08T11:06:31.227Z,99.90
2022-12-08T11:09:00.555Z,99.90
2022-12-08T11:11:47.408Z,99.90
2022-12-08T11:14:24.519Z,99.90
2022-12-08T11:16:55.883Z,99.90
2022-12-08T11:19:29.441Z,99.90
2022-12-08T11:21:56.258Z,99.90
2022-12-08T11:24:31.213Z,99.90
2022-12-08T11:27:04.468Z,99.90
2022-12-08T11:29:36.959Z,99.90
2022-12-08T11:32:13.041Z,99.90
2022-12-08T11:35:10.047Z,99.90
2022-12-08T11:37:41.085Z,99.90
2022-12-08T11:40:23.589Z,99.90
2022-12-08T11:43:24.030Z,99.90
2022-12-08T11:45:58.219Z,99.90
2022-12-08T11:48:37.306Z,99.90
2022-12-08T11:51:11.665Z,99.90
2022-12-08T11:53:47.319Z,99.90
2022-12-08T11:56:21.818Z,99.90
2022-12-08T11:58:54.325Z,99.90
2022-12-08T12:01:24.636Z,99.90
2022-12-08T12:04:12.470Z,99.90
2022-12-08T12:06:56.860Z,99.90
2022-12-08T12:10:04.379Z,99.90
2022-12-08T12:12:55.898Z,99.90
2022-12-08T12:15:43.564Z,99.90
2022-12-08T12:18:22.324Z,99.90
2022-12-08T12:21:02.292Z,99.90
2022-12-08T12:23:47.523Z,99.90
2022-12-08T12:26:26.476Z,99.90
2022-12-08T12:29:17.394Z,99.90
2022-12-08T12:31:57.309Z,99.90
2022-12-08T12:34:34.774Z,99.90
2022-12-08T12:37:12.457Z,99.90
2022-12-08T12:40:07.855Z,99.90
2022-12-08T12:42:50.835Z,99.90
2022-12-08T12:45:17.456Z,99.90
2022-12-08T12:48:20.120Z,99.90
2022-12-08T12:50:50.970Z,99.90
2022-12-08T12:53:18.018Z,99.90
2022-12-08T12:56:03.796Z,99.90
2022-12-08T12:58:32.595Z,99.90
2022-12-08T13:01:11.567Z,99.90
2022-12-08T13:04:03.282Z,99.90
2022-12-08T13:06:39.266Z,99.90
2022-12-08T13:09:07.271Z,99.90
2022-12-08T13:11:49.592Z,99.90
2022-12-08T13:14:36.435Z,99.90
2022-12-08T13:17:09.869Z,99.90
2022-12-08T13:19:38.800Z,99.90
2022-12-08T13:22:44.259Z,99.90
2022-12-08T13:25:39.280Z,99.90
2022-12-08T13:28:28.526Z,99.90
2022-12-08T13:30:56.083Z,99.90
2022-12-08T13:33:32.634Z,99.90
2022-12-08T13:36:24.006Z,99.90
2022-12-08T13:38:55.843Z,99.90
2022-12-08T13:41:31.410Z,99.90
2022-12-08T13:54:33.453Z,99.90
2022-12-08T13:59:19.419Z,99.90
2022-12-08T14:01:51.139Z,99.90
2022-12-08T14:07:09.457Z,99.90
2022-12-08T14:09:37.567Z,99.90
2022-12-08T14:12:09.250Z,99.90
2022-12-08T14:17:35.947Z,99.90
2022-12-08T14:20:22.427Z,99.90
2022-12-08T14:22:50.382Z,99.90
2022-12-08T14:25:18.035Z,99.90
2022-12-08T14:27:45.883Z,99.90
2022-12-08T14:30:21.318Z,99.90
2022-12-08T14:32:56.162Z,99.90
2022-12-08T14:35:31.592Z,99.90
2022-12-08T14:38:14.771Z,99.90
2022-12-08T14:40:45.307Z,99.90
2022-12-08T14:43:14.836Z,99.90
2022-12-08T14:45:41.516Z,99.90
2022-12-08T14:48:26.317Z,99.90
2022-12-08T14:51:01.757Z,99.90
2022-12-08T14:53:37.702Z,99.90
2022-12-08T14:56:29.632Z,99.90
2022-12-08T14:59:15.104Z,99.90
2022-12-08T15:01:45.771Z,99.90
2022-12-08T15:04:12.424Z,99.90
2022-12-08T15:07:05.692Z,99.90
2022-12-08T15:09:39.095Z,99.90
2022-12-08T15:12:23.248Z,99.90
2022-12-08T15:15:07.617Z,99.90
2022-12-08T15:17:42.037Z,99.90
2022-12-08T15:20:35.391Z,99.90
2022-12-08T15:23:04.558Z,99.90
2022-12-08T15:25:34.259Z,99.90
2022-12-08T15:28:03.082Z,99.90
2022-12-08T15:30:37.498Z,99.90
2022-12-08T15:33:04.184Z,99.90
2022-12-08T15:35:34.660Z,99.90
2022-12-08T15:38:03.970Z,99.90
2022-12-08T15:40:30.599Z,99.90
2022-12-08T15:42:57.214Z,99.90
2022-12-08T15:45:30.632Z,99.90
2022-12-08T15:47:57.306Z,99.90
2022-12-08T15:50:24.380Z,99.90
2022-12-08T15:52:53.438Z,1.00
2022-12-08T15:55:22.427Z,1.00
2022-12-08T15:58:51.270Z,1.00
2022-12-08T16:00:57.957Z,1.00
2022-12-08T16:04:13.737Z,99.90
2022-12-08T16:09:23.331Z,99.90
2022-12-08T16:12:11.895Z,99.90
2022-12-08T16:17:27.645Z,98.70
2022-12-08T16:19:55.800Z,1.00
2022-12-08T16:25:20.259Z,99.90
2022-12-08T16:28:01.476Z,99.90
2022-12-08T16:30:30.171Z,99.90
2022-12-08T16:32:57.123Z,99.90
2022-12-08T16:35:24.154Z,99.90
2022-12-08T16:37:50.924Z,99.90
2022-12-08T16:40:17.586Z,99.90
2022-12-08T16:42:44.324Z,99.90
2022-12-08T16:45:16.544Z,99.90
2022-12-08T16:47:49.346Z,1.00
2022-12-08T16:50:19.990Z,1.00
2022-12-08T16:52:47.926Z,1.00
2022-12-08T16:55:19.287Z,1.00
2022-12-08T16:57:49.310Z,1.00
2022-12-08T17:00:19.880Z,1.00
2022-12-08T17:02:47.021Z,1.00
2022-12-08T17:05:15.376Z,99.90
2022-12-08T17:07:43.999Z,99.90
2022-12-08T17:10:12.981Z,99.90
2022-12-08T17:12:39.992Z,99.90
2022-12-08T17:15:09.848Z,91.90
2022-12-08T17:17:37.009Z,35.30
2022-12-08T17:20:07.639Z,1.00
2022-12-08T17:22:37.524Z,1.00
2022-12-08T17:27:45.930Z,1.00
2022-12-08T17:30:15.563Z,1.00
2022-12-08T17:32:43.161Z,1.00
2022-12-08T17:35:13.391Z,1.00
2022-12-08T17:37:40.598Z,1.00
2022-12-08T17:40:08.219Z,1.00
2022-12-08T17:42:35.113Z,1.00
2022-12-08T17:45:01.783Z,1.00
2022-12-08T17:47:28.643Z,1.00
2022-12-08T17:49:56.045Z,1.00
2022-12-08T17:52:24.964Z,1.00
2022-12-08T17:54:54.008Z,1.00
2022-12-08T17:57:20.647Z,1.00
2022-12-08T17:59:47.324Z,1.00
2022-12-08T18:02:15.020Z,99.90
2022-12-08T18:04:41.679Z,99.90
2022-12-08T18:07:08.375Z,1.00
2022-12-08T18:09:35.205Z,1.00
2022-12-08T18:12:02.034Z,1.00
2022-12-08T18:14:29.394Z,1.00
2022-12-08T18:16:56.157Z,1.00
2022-12-08T18:19:23.036Z,1.00
2022-12-08T18:21:49.785Z,1.00
2022-12-08T18:24:24.604Z,1.00
2022-12-08T18:26:52.532Z,1.00
2022-12-08T18:29:20.839Z,1.00
2022-12-08T18:31:51.271Z,1.00
2022-12-08T18:34:19.010Z,1.00
2022-12-08T18:36:46.151Z,1.00
2022-12-08T18:39:24.673Z,1.00
2022-12-08T18:41:52.694Z,1.00
2022-12-08T18:44:19.831Z,1.00
2022-12-08T18:46:46.614Z,99.90
2022-12-08T18:49:15.875Z,99.90
2022-12-08T18:51:43.190Z,99.90
2022-12-08T18:54:10.884Z,99.90
2022-12-08T18:56:37.669Z,99.90
2022-12-08T18:59:10.745Z,99.90
2022-12-08T19:01:38.948Z,99.90
2022-12-08T19:06:56.345Z,99.90
2022-12-08T19:09:24.442Z,99.90
2022-12-08T19:11:51.108Z,99.90
2022-12-08T19:14:21.375Z,95.40
2022-12-08T19:16:52.415Z,32.90
2022-12-08T19:19:19.156Z,1.00
2022-12-08T19:21:46.756Z,1.00
2022-12-08T19:24:13.571Z,1.00
2022-12-08T19:26:40.358Z,99.90
2022-12-08T19:29:09.371Z,99.90
2022-12-08T19:31:36.226Z,99.90
2022-12-08T19:34:03.293Z,99.90
2022-12-08T19:36:35.266Z,91.60
2022-12-08T19:39:22.045Z,31.40
2022-12-08T19:42:07.722Z,1.00
2022-12-08T19:44:34.494Z,1.00
2022-12-08T19:47:01.917Z,1.00
2022-12-08T19:49:28.795Z,1.00
2022-12-08T19:51:55.931Z,1.00
2022-12-08T19:54:22.666Z,1.00
2022-12-08T19:56:49.422Z,1.00
2022-12-08T19:59:16.274Z,1.00
2022-12-08T20:01:44.024Z,1.00
2022-12-08T20:04:14.659Z,1.00
2022-12-08T20:06:42.091Z,1.00
2022-12-08T20:09:10.319Z,1.00
2022-12-08T20:11:37.963Z,1.00
2022-12-08T20:14:04.747Z,1.00
2022-12-08T20:16:31.752Z,1.00
2022-12-08T20:18:58.826Z,1.00
2022-12-08T20:21:25.575Z,1.00
2022-12-08T20:23:52.307Z,1.00
2022-12-08T20:26:23.007Z,1.00
2022-12-08T20:28:50.175Z,1.00
2022-12-08T20:31:22.474Z,1.00
2022-12-08T20:33:49.608Z,99.90
2022-12-08T20:36:18.727Z,99.90
2022-12-08T20:38:47.240Z,99.90
2022-12-08T20:41:16.013Z,99.90
2022-12-08T20:43:44.556Z,99.90
2022-12-08T20:46:17.034Z,99.90
2022-12-08T20:48:44.700Z,99.90
2022-12-08T20:51:19.547Z,99.90
2022-12-08T20:53:47.078Z,99.90
2022-12-08T20:56:16.701Z,99.90
2022-12-08T20:58:43.553Z,99.90
2022-12-08T21:01:12.317Z,99.90
2022-12-08T21:03:40.049Z,99.90
2022-12-08T21:06:07.553Z,99.90
2022-12-08T21:08:35.210Z,99.90
2022-12-08T21:11:02.929Z,99.90
2022-12-08T21:13:30.100Z,99.90
2022-12-08T21:15:57.307Z,99.90
2022-12-08T21:18:24.557Z,99.90
2022-12-08T21:20:52.341Z,99.90
2022-12-08T21:23:22.121Z,99.90
2022-12-08T21:25:49.115Z,99.90
2022-12-08T21:28:15.951Z,99.90
2022-12-08T21:30:45.679Z,99.90
2022-12-08T21:33:12.458Z,99.90
2022-12-08T21:35:39.454Z,1.00
2022-12-08T21:38:07.086Z,1.00
2022-12-08T21:40:35.220Z,1.00
2022-12-08T21:43:03.745Z,1.00
2022-12-08T21:45:31.153Z,1.00
2022-12-08T21:47:59.549Z,1.00
2022-12-08T21:50:27.610Z,15.10
2022-12-08T21:52:54.408Z,99.90
2022-12-08T21:55:22.745Z,99.90
2022-12-08T21:57:49.540Z,99.90
2022-12-08T22:00:19.650Z,99.90
2022-12-08T22:02:47.047Z,99.90
2022-12-08T22:05:13.993Z,1.00
2022-12-08T22:07:41.382Z,1.00
2022-12-08T22:10:10.419Z,1.00
2022-12-08T22:12:37.876Z,90.60
2022-12-08T22:15:07.207Z,99.90
2022-12-08T22:17:44.522Z,99.90
2022-12-08T22:20:15.584Z,99.90
2022-12-08T22:22:42.401Z,1.00
2022-12-08T22:25:13.234Z,1.00
2022-12-08T22:27:41.168Z,99.90
2022-12-08T22:30:09.592Z,99.90
2022-12-08T22:32:37.053Z,99.90
2022-12-08T22:35:06.173Z,1.00
2022-12-08T22:37:34.618Z,1.00
2022-12-08T22:40:01.311Z,1.00
2022-12-08T22:42:28.281Z,1.00
2022-12-08T22:44:57.173Z,1.00
2022-12-08T22:47:24.001Z,99.90
2022-12-08T22:49:50.692Z,99.90
2022-12-08T22:52:17.337Z,1.00
2022-12-08T22:54:44.202Z,1.00
2022-12-08T22:57:13.551Z,99.90
2022-12-08T22:59:41.003Z,99.90
2022-12-08T23:02:08.115Z,99.90
2022-12-08T23:04:35.612Z,99.90
2022-12-08T23:07:02.728Z,1.00
2022-12-08T23:09:36.856Z,1.00
2022-12-08T23:12:04.143Z,1.00
2022-12-08T23:14:30.804Z,99.90
2022-12-08T23:16:57.549Z,99.90
2022-12-08T23:19:24.245Z,99.90
2022-12-08T23:21:50.965Z,1.00
2022-12-08T23:24:17.610Z,1.00
2022-12-08T23:26:44.370Z,1.00
2022-12-08T23:29:11.254Z,1.00
2022-12-08T23:31:39.140Z,1.00
2022-12-08T23:34:06.039Z,1.00
2022-12-08T23:36:35.390Z,1.00
2022-12-08T23:39:02.407Z,1.00
2022-12-08T23:41:29.277Z,1.00
2022-12-08T23:43:55.986Z,36.30
2022-12-08T23:46:23.528Z,99.70
2022-12-08T23:48:51.374Z,99.90
2022-12-08T23:51:18.687Z,99.90
2022-12-08T23:53:48.100Z,99.90
2022-12-08T23:56:17.049Z,99.90
2022-12-08T23:58:44.297Z,99.90
